Time;durP1;ratioP1;P1;durP2;ratioP2;P2;SDS_P1;SDS_P2;PMS_P1;PMS_P2;Temp;Humidity;BMP_temperature;BMP_pressure;BME280_temperature;BME280_humidity;BME280_pressure;Samples;Min_cycle;Max_cycle;Signal;HPM_P1;HPM_P2
2021/08/19 00:00:55;;;;;;;8.20;6.28;;;;;;;;;;1081412;54;20412;-83
2021/08/19 00:01:56;;;;;;;11.57;6.80;;;;;;;;;;1081516;54;20405;-83
2021/08/19 00:02:58;;;;;;;9.93;6.70;;;;;;;;;;1080652;47;20874;-83
2021/08/19 00:04:00;;;;;;;10.32;6.47;;;;;;;;;;1081665;47;20373;-84
2021/08/19 00:05:02;;;;;;;8.32;6.95;;;;;;;;;;1081643;54;20369;-84
2021/08/19 00:06:04;;;;;;;10.40;6.93;;;;;;;;;;1081643;47;20412;-83
2021/08/19 00:07:07;;;;;;;9.98;7.38;;;;;;;;;;1081057;47;20489;-84
2021/08/19 00:08:08;;;;;;;8.25;6.65;;;;;;;;;;1081839;39;20989;-83
2021/08/19 00:09:10;;;;;;;9.10;6.38;;;;;;;;;;1081646;54;20409;-83
2021/08/19 00:10:12;;;;;;;11.18;6.93;;;;;;;;;;1081427;51;20383;-84
2021/08/19 00:11:14;;;;;;;11.50;6.95;;;;;;;;;;1081647;54;20369;-83
2021/08/19 00:12:16;;;;;;;12.68;7.25;;;;;;;;;;1081288;47;20377;-84
2021/08/19 00:13:17;;;;;;;11.13;7.78;;;;;;;;;;1081106;47;20410;-85
2021/08/19 00:14:19;;;;;;;12.10;7.03;;;;;;;;;;1081428;47;21223;-85
2021/08/19 00:15:21;;;;;;;10.85;6.68;;;;;;;;;;1081619;54;20381;-84
2021/08/19 00:16:23;;;;;;;10.52;6.60;;;;;;;;;;1081532;47;20377;-83
2021/08/19 00:17:25;;;;;;;9.25;6.80;;;;;;;;;;1080911;54;20373;-84
2021/08/19 00:18:28;;;;;;;12.68;7.65;;;;;;;;;;1081436;54;20395;-84
2021/08/19 00:19:30;;;;;;;16.30;7.45;;;;;;;;;;1081339;47;20377;-84
2021/08/19 00:20:32;;;;;;;8.75;7.00;;;;;;;;;;1081531;54;21257;-84
2021/08/19 00:21:33;;;;;;;11.02;6.93;;;;;;;;;;1081917;47;20393;-84
2021/08/19 00:22:36;;;;;;;10.38;7.10;;;;;;;;;;1081584;39;20745;-84
2021/08/19 00:23:38;;;;;;;9.82;6.50;;;;;;;;;;1080932;54;20374;-83
2021/08/19 00:24:40;;;;;;;9.85;7.78;;;;;;;;;;1081443;47;20487;-84
2021/08/19 00:25:41;;;;;;;10.07;7.28;;;;;;;;;;1081989;39;20845;-83
2021/08/19 00:26:43;;;;;;;8.52;6.72;;;;;;;;;;1081276;54;20361;-84
2021/08/19 00:27:45;;;;;;;12.43;6.30;;;;;;;;;;1081243;47;20365;-84
2021/08/19 00:28:46;;;;;;;12.68;7.15;;;;;;;;;;1081586;54;20386;-84
2021/08/19 00:29:48;;;;;;;11.30;7.80;;;;;;;;;;1080931;54;20388;-84
2021/08/19 00:30:50;;;;;;;10.98;7.68;;;;;;;;;;1081903;39;20811;-84
2021/08/19 00:31:53;;;;;;;11.93;7.65;;;;;;;;;;1081269;54;20388;-84
2021/08/19 00:32:54;;;;;;;11.27;7.20;;;;;;;;;;1081801;54;20501;-84
2021/08/19 00:33:56;;;;;;;12.40;7.60;;;;;;;;;;1081606;54;20381;-83
2021/08/19 00:34:59;;;;;;;13.90;6.63;;;;;;;;;;1081765;47;20366;-84
2021/08/19 00:36:01;;;;;;;8.07;6.70;;;;;;;;;;1081464;39;20874;-83
2021/08/19 00:37:03;;;;;;;10.93;7.22;;;;;;;;;;1081347;54;20385;-84
2021/08/19 00:38:05;;;;;;;10.93;7.03;;;;;;;;;;1082302;47;20361;-84
2021/08/19 00:39:06;;;;;;;11.43;7.13;;;;;;;;;;1081336;47;20382;-83
2021/08/19 00:40:09;;;;;;;9.88;7.00;;;;;;;;;;1081239;47;20369;-83
2021/08/19 00:41:11;;;;;;;9.52;6.70;;;;;;;;;;1081685;54;20381;-84
2021/08/19 00:42:15;;;;;;;10.68;6.80;;;;;;;;;;1081011;54;20385;-85
2021/08/19 00:43:19;;;;;;;9.45;6.55;;;;;;;;;;1081536;54;20399;-85
2021/08/19 00:44:21;;;;;;;9.90;6.97;;;;;;;;;;1081274;47;20405;-83
2021/08/19 00:45:24;;;;;;;11.50;8.15;;;;;;;;;;1081341;47;20472;-84
2021/08/19 00:46:31;;;;;;;11.23;7.03;;;;;;;;;;1081681;47;20380;-85
2021/08/19 00:47:33;;;;;;;11.65;6.95;;;;;;;;;;1081559;54;20361;-83
2021/08/19 00:48:35;;;;;;;10.00;7.30;;;;;;;;;;1081684;47;20405;-84
2021/08/19 00:49:42;;;;;;;9.23;6.35;;;;;;;;;;1081460;54;20389;-84
2021/08/19 00:50:43;;;;;;;11.18;6.88;;;;;;;;;;1081257;47;20361;-84
2021/08/19 00:51:48;;;;;;;9.40;7.30;;;;;;;;;;1081598;46;20465;-83
2021/08/19 00:52:50;;;;;;;8.87;6.57;;;;;;;;;;1081477;54;20377;-83
2021/08/19 00:53:55;;;;;;;7.80;6.32;;;;;;;;;;1081811;47;20399;-84
2021/08/19 00:54:57;;;;;;;12.25;7.60;;;;;;;;;;1081824;47;20959;-84
2021/08/19 00:55:58;;;;;;;10.90;7.33;;;;;;;;;;1081838;39;20795;-83
2021/08/19 00:57:03;;;;;;;12.13;6.40;;;;;;;;;;1081737;54;20381;-83
2021/08/19 00:58:04;;;;;;;13.27;6.47;;;;;;;;;;1080972;54;20400;-83
2021/08/19 00:59:08;;;;;;;12.55;7.00;;;;;;;;;;1081594;47;20381;-83
2021/08/19 01:00:12;;;;;;;11.35;6.75;;;;;;;;;;1082145;47;20378;-83
2021/08/19 01:01:14;;;;;;;14.07;7.65;;;;;;;;;;1082041;54;20371;-83
2021/08/19 01:02:16;;;;;;;12.93;7.53;;;;;;;;;;1081687;54;20504;-85
2021/08/19 01:03:18;;;;;;;13.00;7.30;;;;;;;;;;1081506;47;20377;-85
2021/08/19 01:04:21;;;;;;;10.27;6.80;;;;;;;;;;1082898;39;20749;-84
2021/08/19 01:05:28;;;;;;;10.35;6.90;;;;;;;;;;1081853;54;20407;-84
2021/08/19 01:06:30;;;;;;;10.00;6.93;;;;;;;;;;1081750;47;21003;-84
2021/08/19 01:07:32;;;;;;;10.88;7.13;;;;;;;;;;1081871;51;20369;-84
2021/08/19 01:08:35;;;;;;;12.40;7.28;;;;;;;;;;1081801;47;20377;-83
2021/08/19 01:09:37;;;;;;;9.45;7.40;;;;;;;;;;1081592;54;20381;-84
2021/08/19 01:10:40;;;;;;;11.90;7.30;;;;;;;;;;1082035;47;21019;-84
2021/08/19 01:11:43;;;;;;;10.85;6.82;;;;;;;;;;1082167;54;20379;-84
2021/08/19 01:12:46;;;;;;;10.95;7.43;;;;;;;;;;1081828;47;20369;-83
2021/08/19 01:13:49;;;;;;;15.07;8.20;;;;;;;;;;1082365;54;20372;-83
2021/08/19 01:14:50;;;;;;;14.65;7.82;;;;;;;;;;1082653;47;20408;-84
2021/08/19 01:15:53;;;;;;;10.38;7.57;;;;;;;;;;1083509;47;20405;-83
2021/08/19 01:16:55;;;;;;;11.05;7.10;;;;;;;;;;1082518;54;20361;-83
2021/08/19 01:18:00;;;;;;;11.05;7.75;;;;;;;;;;1082901;54;20349;-84
2021/08/19 01:19:02;;;;;;;12.73;8.13;;;;;;;;;;1082389;54;20365;-83
2021/08/19 01:20:10;;;;;;;11.93;7.75;;;;;;;;;;1082871;47;20472;-83
2021/08/19 01:21:13;;;;;;;12.50;8.45;;;;;;;;;;1082994;47;20497;-83
2021/08/19 01:22:16;;;;;;;11.32;7.78;;;;;;;;;;1083716;47;20425;-84
2021/08/19 01:23:17;;;;;;;12.38;8.00;;;;;;;;;;1084400;47;20353;-83
2021/08/19 01:24:20;;;;;;;10.48;7.65;;;;;;;;;;1084643;39;20870;-84
2021/08/19 01:25:22;;;;;;;14.18;8.40;;;;;;;;;;1082517;54;20420;-84
2021/08/19 01:26:25;;;;;;;12.77;8.50;;;;;;;;;;1082073;54;20483;-83
2021/08/19 01:27:28;;;;;;;9.35;8.05;;;;;;;;;;1082250;54;20428;-83
2021/08/19 01:28:30;;;;;;;15.75;8.07;;;;;;;;;;1081997;54;20363;-83
2021/08/19 01:29:32;;;;;;;10.57;7.93;;;;;;;;;;1081871;47;20416;-83
2021/08/19 01:30:33;;;;;;;11.70;7.57;;;;;;;;;;1081801;47;20365;-83
2021/08/19 01:31:36;;;;;;;15.02;8.90;;;;;;;;;;1081835;47;20468;-83
2021/08/19 01:32:38;;;;;;;12.40;7.90;;;;;;;;;;1081163;54;20377;-83
2021/08/19 01:33:44;;;;;;;10.70;8.30;;;;;;;;;;1081977;47;20492;-84
2021/08/19 01:34:47;;;;;;;11.75;8.00;;;;;;;;;;1080831;54;20386;-83
2021/08/19 01:35:48;;;;;;;14.85;7.82;;;;;;;;;;1081810;54;20408;-83
2021/08/19 01:36:50;;;;;;;14.65;8.35;;;;;;;;;;1081577;47;21338;-83
2021/08/19 01:37:52;;;;;;;11.68;8.13;;;;;;;;;;1081678;54;20400;-84
2021/08/19 01:38:55;;;;;;;13.88;8.05;;;;;;;;;;1081521;39;21097;-84
2021/08/19 01:39:56;;;;;;;13.07;8.57;;;;;;;;;;1081508;47;20377;-83
2021/08/19 01:40:58;;;;;;;14.98;9.45;;;;;;;;;;1081389;54;20442;-83
2021/08/19 01:42:00;;;;;;;11.02;8.15;;;;;;;;;;1081660;47;21020;-83
2021/08/19 01:43:08;;;;;;;15.15;8.40;;;;;;;;;;1081090;47;20381;-83
2021/08/19 01:44:10;;;;;;;14.25;8.95;;;;;;;;;;1081970;47;20484;-84
2021/08/19 01:45:16;;;;;;;14.52;8.50;;;;;;;;;;1081345;47;20947;-83
2021/08/19 01:46:20;;;;;;;13.57;8.70;;;;;;;;;;1081572;47;20958;-84
2021/08/19 01:47:22;;;;;;;17.45;9.98;;;;;;;;;;1081742;54;20378;-83
2021/08/19 01:48:25;;;;;;;13.82;9.18;;;;;;;;;;1081421;54;20404;-84
2021/08/19 01:49:28;;;;;;;14.57;8.85;;;;;;;;;;1081787;47;20389;-83
2021/08/19 01:50:29;;;;;;;15.95;9.82;;;;;;;;;;1080992;54;20407;-83
2021/08/19 01:51:33;;;;;;;11.63;8.45;;;;;;;;;;1082395;39;20812;-84
2021/08/19 01:52:35;;;;;;;17.85;9.90;;;;;;;;;;1081610;54;20407;-84
2021/08/19 01:53:38;;;;;;;16.48;9.07;;;;;;;;;;1081683;47;20682;-83
2021/08/19 01:54:40;;;;;;;16.00;9.77;;;;;;;;;;1083219;47;20460;-83
2021/08/19 01:55:43;;;;;;;14.57;9.13;;;;;;;;;;1086417;54;20357;-83
2021/08/19 01:56:45;;;;;;;14.05;9.25;;;;;;;;;;1086583;47;20465;-84
2021/08/19 01:57:48;;;;;;;13.20;9.75;;;;;;;;;;1086712;54;20433;-84
2021/08/19 01:58:53;;;;;;;15.98;9.50;;;;;;;;;;1087192;47;20457;-84
2021/08/19 01:59:55;;;;;;;14.75;9.40;;;;;;;;;;1086829;54;20369;-84
2021/08/19 02:00:57;;;;;;;13.38;9.13;;;;;;;;;;1086356;47;20503;-83
2021/08/19 02:02:02;;;;;;;16.65;9.30;;;;;;;;;;1086107;47;20377;-83
2021/08/19 02:03:05;;;;;;;17.02;10.25;;;;;;;;;;1085682;54;20431;-83
2021/08/19 02:04:06;;;;;;;13.35;9.07;;;;;;;;;;1085200;54;20418;-83
2021/08/19 02:05:09;;;;;;;17.08;9.85;;;;;;;;;;1091005;39;20787;-83
2021/08/19 02:06:10;;;;;;;13.15;9.27;;;;;;;;;;1087171;47;20412;-83
2021/08/19 02:07:12;;;;;;;18.35;10.15;;;;;;;;;;1087091;54;20369;-84
2021/08/19 02:08:15;;;;;;;14.40;9.57;;;;;;;;;;1087348;39;20733;-82
2021/08/19 02:09:17;;;;;;;13.52;9.27;;;;;;;;;;1085911;54;20385;-84
2021/08/19 02:10:18;;;;;;;15.63;9.30;;;;;;;;;;1087419;47;20349;-84
2021/08/19 02:11:20;;;;;;;13.35;9.30;;;;;;;;;;1088035;47;20369;-84
2021/08/19 02:12:22;;;;;;;15.30;9.43;;;;;;;;;;1087202;47;20389;-85
2021/08/19 02:13:24;;;;;;;15.10;9.25;;;;;;;;;;1085752;51;20400;-83
2021/08/19 02:14:25;;;;;;;13.50;9.10;;;;;;;;;;1083616;54;20458;-82
2021/08/19 02:15:27;;;;;;;14.40;9.60;;;;;;;;;;1083601;54;20928;-83
2021/08/19 02:16:30;;;;;;;20.05;9.82;;;;;;;;;;1083516;54;20369;-82
2021/08/19 02:17:32;;;;;;;14.90;9.23;;;;;;;;;;1082987;47;20389;-83
2021/08/19 02:18:33;;;;;;;15.23;9.82;;;;;;;;;;1082139;47;20357;-83
2021/08/19 02:19:35;;;;;;;15.65;9.90;;;;;;;;;;1082035;54;20381;-83
2021/08/19 02:20:37;;;;;;;15.57;9.27;;;;;;;;;;1081527;54;21135;-82
2021/08/19 02:21:39;;;;;;;14.98;9.40;;;;;;;;;;1081899;54;20373;-83
2021/08/19 02:22:41;;;;;;;14.23;9.70;;;;;;;;;;1081548;47;20381;-82
2021/08/19 02:23:43;;;;;;;13.57;8.85;;;;;;;;;;1081922;54;20365;-83
2021/08/19 02:24:45;;;;;;;12.48;9.35;;;;;;;;;;1081206;54;20381;-83
2021/08/19 02:25:46;;;;;;;17.92;10.07;;;;;;;;;;1081507;54;20396;-83
2021/08/19 02:26:48;;;;;;;12.82;9.23;;;;;;;;;;1081269;54;20963;-83
2021/08/19 02:27:50;;;;;;;14.45;9.75;;;;;;;;;;1081638;47;20407;-83
2021/08/19 02:28:52;;;;;;;11.90;8.90;;;;;;;;;;1081033;47;20497;-83
2021/08/19 02:29:53;;;;;;;14.13;8.77;;;;;;;;;;1081162;47;20366;-83
2021/08/19 02:30:55;;;;;;;14.55;9.48;;;;;;;;;;1082041;39;20777;-83
2021/08/19 02:31:57;;;;;;;13.07;8.80;;;;;;;;;;1081493;47;20449;-84
2021/08/19 02:32:58;;;;;;;16.50;9.20;;;;;;;;;;1081860;54;20369;-83
2021/08/19 02:34:02;;;;;;;14.63;10.10;;;;;;;;;;1082089;39;20824;-83
2021/08/19 02:35:04;;;;;;;10.85;9.15;;;;;;;;;;1081450;54;20472;-83
2021/08/19 02:36:06;;;;;;;11.90;9.57;;;;;;;;;;1082292;39;20785;-83
2021/08/19 02:37:08;;;;;;;16.20;9.27;;;;;;;;;;1082076;39;20787;-82
2021/08/19 02:38:10;;;;;;;12.05;9.13;;;;;;;;;;1081849;47;20361;-82
2021/08/19 02:39:12;;;;;;;14.82;9.10;;;;;;;;;;1081709;39;20754;-82
2021/08/19 02:40:13;;;;;;;13.77;9.13;;;;;;;;;;1081516;54;20369;-83
2021/08/19 02:41:15;;;;;;;15.50;9.73;;;;;;;;;;1081817;54;20496;-83
2021/08/19 02:42:17;;;;;;;15.88;10.32;;;;;;;;;;1081438;54;20404;-84
2021/08/19 02:43:18;;;;;;;11.02;8.63;;;;;;;;;;1081995;39;20790;-84
2021/08/19 02:44:20;;;;;;;15.82;9.73;;;;;;;;;;1081703;54;20388;-83
2021/08/19 02:45:22;;;;;;;12.23;9.00;;;;;;;;;;1081668;47;20399;-84
2021/08/19 02:46:28;;;;;;;22.23;9.90;;;;;;;;;;1081494;54;20395;-83
2021/08/19 02:47:30;;;;;;;12.20;8.65;;;;;;;;;;1081584;46;20381;-83
2021/08/19 02:48:32;;;;;;;11.88;9.20;;;;;;;;;;1081790;47;20439;-83
2021/08/19 02:49:33;;;;;;;16.60;8.95;;;;;;;;;;1081862;39;20770;-83
2021/08/19 02:50:35;;;;;;;11.27;8.32;;;;;;;;;;1081715;39;20939;-83
2021/08/19 02:51:37;;;;;;;18.08;9.40;;;;;;;;;;1081720;54;20361;-83
2021/08/19 02:52:39;;;;;;;11.85;9.02;;;;;;;;;;1081789;54;20405;-82
2021/08/19 02:53:41;;;;;;;12.68;8.57;;;;;;;;;;1081737;54;20389;-83
2021/08/19 02:54:43;;;;;;;13.55;9.77;;;;;;;;;;1081430;54;20374;-82
2021/08/19 02:55:44;;;;;;;14.13;9.20;;;;;;;;;;1082137;39;20864;-83
2021/08/19 02:56:46;;;;;;;13.38;9.05;;;;;;;;;;1081794;54;20353;-83
2021/08/19 02:57:48;;;;;;;17.88;9.30;;;;;;;;;;1081474;54;20436;-82
2021/08/19 02:58:50;;;;;;;17.15;8.93;;;;;;;;;;1081626;47;20384;-83
2021/08/19 02:59:51;;;;;;;13.93;8.60;;;;;;;;;;1081578;47;20392;-83
2021/08/19 03:00:53;;;;;;;14.30;9.07;;;;;;;;;;1081440;54;20369;-83
2021/08/19 03:01:55;;;;;;;14.13;8.95;;;;;;;;;;1081646;54;20396;-83
2021/08/19 03:02:57;;;;;;;20.00;9.07;;;;;;;;;;1081269;47;20465;-83
2021/08/19 03:04:00;;;;;;;16.67;8.13;;;;;;;;;;1081748;39;20773;-83
2021/08/19 03:05:03;;;;;;;13.55;8.40;;;;;;;;;;1081423;47;20374;-83
2021/08/19 03:06:05;;;;;;;11.77;8.48;;;;;;;;;;1081633;47;20362;-83
2021/08/19 03:07:09;;;;;;;12.68;8.48;;;;;;;;;;1081752;54;20369;-83
2021/08/19 03:08:11;;;;;;;14.20;8.35;;;;;;;;;;1081390;47;20416;-83
2021/08/19 03:09:13;;;;;;;14.43;8.70;;;;;;;;;;1081790;39;20800;-82
2021/08/19 03:10:14;;;;;;;14.73;8.45;;;;;;;;;;1081474;46;20378;-83
2021/08/19 03:11:16;;;;;;;13.35;7.68;;;;;;;;;;1081649;54;20401;-83
2021/08/19 03:12:18;;;;;;;15.45;7.50;;;;;;;;;;1081537;54;20388;-84
2021/08/19 03:13:20;;;;;;;11.85;7.72;;;;;;;;;;1081806;54;20361;-83
2021/08/19 03:14:21;;;;;;;13.38;7.43;;;;;;;;;;1081392;46;21333;-85
2021/08/19 03:15:23;;;;;;;14.88;8.02;;;;;;;;;;1081439;47;20397;-84
2021/08/19 03:16:25;;;;;;;9.77;7.05;;;;;;;;;;1081562;51;20373;-83
2021/08/19 03:17:28;;;;;;;10.35;7.78;;;;;;;;;;1081670;47;20362;-83
2021/08/19 03:18:29;;;;;;;11.20;7.63;;;;;;;;;;1081600;54;20400;-84
2021/08/19 03:19:31;;;;;;;15.82;7.57;;;;;;;;;;1081258;54;20373;-83
2021/08/19 03:20:33;;;;;;;11.98;7.03;;;;;;;;;;1081653;54;20404;-83
2021/08/19 03:21:36;;;;;;;11.80;7.43;;;;;;;;;;1081773;54;20380;-83
2021/08/19 03:22:38;;;;;;;15.55;7.05;;;;;;;;;;1081811;39;20651;-83
2021/08/19 03:23:40;;;;;;;16.08;8.35;;;;;;;;;;1081488;54;20453;-82
2021/08/19 03:24:42;;;;;;;10.80;7.22;;;;;;;;;;1081510;54;20404;-83
2021/08/19 03:25:44;;;;;;;12.15;7.03;;;;;;;;;;1081529;47;20361;-82
2021/08/19 03:26:46;;;;;;;13.32;7.07;;;;;;;;;;1081086;54;20361;-83
2021/08/19 03:27:47;;;;;;;10.27;7.20;;;;;;;;;;1081596;47;20389;-82
2021/08/19 03:28:49;;;;;;;8.27;7.20;;;;;;;;;;1081946;31;20972;-83
2021/08/19 03:29:51;;;;;;;12.30;7.07;;;;;;;;;;1081322;46;20377;-83
2021/08/19 03:30:54;;;;;;;9.90;6.53;;;;;;;;;;1082208;31;20949;-83
2021/08/19 03:31:56;;;;;;;10.88;7.35;;;;;;;;;;1083499;31;20901;-82
2021/08/19 03:32:59;;;;;;;8.18;6.80;;;;;;;;;;1081315;54;20358;-83
2021/08/19 03:34:00;;;;;;;7.22;6.45;;;;;;;;;;1081522;46;20419;-83
2021/08/19 03:35:02;;;;;;;10.05;7.28;;;;;;;;;;1081488;54;20373;-83
2021/08/19 03:36:05;;;;;;;7.03;6.32;;;;;;;;;;1081514;54;20366;-83
2021/08/19 03:37:16;;;;;;;7.43;6.65;;;;;;;;;;1081501;47;20369;-83
2021/08/19 03:38:18;;;;;;;9.80;6.03;;;;;;;;;;1082333;39;21108;-84
2021/08/19 03:39:19;;;;;;;8.63;6.38;;;;;;;;;;1081450;54;20366;-84
2021/08/19 03:40:21;;;;;;;6.85;6.03;;;;;;;;;;1081676;54;20372;-84
2021/08/19 03:41:23;;;;;;;7.70;5.78;;;;;;;;;;1081559;54;20384;-83
2021/08/19 03:42:24;;;;;;;7.43;6.30;;;;;;;;;;1081821;54;21290;-83
2021/08/19 03:43:26;;;;;;;8.65;6.53;;;;;;;;;;1081800;46;20389;-84
2021/08/19 03:44:28;;;;;;;6.40;5.70;;;;;;;;;;1081633;54;20484;-83
2021/08/19 03:45:30;;;;;;;7.13;6.22;;;;;;;;;;1081874;47;20378;-83
2021/08/19 03:46:32;;;;;;;7.15;5.97;;;;;;;;;;1081826;54;20372;-84
2021/08/19 03:47:34;;;;;;;6.40;5.80;;;;;;;;;;1081746;46;20404;-83
2021/08/19 03:48:36;;;;;;;7.40;5.53;;;;;;;;;;1082151;54;20349;-83
2021/08/19 03:49:37;;;;;;;6.13;5.60;;;;;;;;;;1082080;54;20381;-84
2021/08/19 03:50:39;;;;;;;5.82;5.30;;;;;;;;;;1081959;47;20381;-83
2021/08/19 03:51:41;;;;;;;6.70;5.13;;;;;;;;;;1082222;54;20373;-83
2021/08/19 03:52:43;;;;;;;5.38;4.78;;;;;;;;;;1082212;51;20898;-83
2021/08/19 03:53:50;;;;;;;5.97;5.38;;;;;;;;;;1081634;54;20374;-83
2021/08/19 03:54:52;;;;;;;7.90;5.40;;;;;;;;;;1081816;54;20372;-83
2021/08/19 03:55:54;;;;;;;5.45;4.97;;;;;;;;;;1081883;47;20353;-83
2021/08/19 03:56:55;;;;;;;5.30;4.85;;;;;;;;;;1082095;47;20384;-83
2021/08/19 03:57:57;;;;;;;5.75;4.30;;;;;;;;;;1082155;47;21339;-83
2021/08/19 03:58:59;;;;;;;4.60;4.20;;;;;;;;;;1081690;54;20927;-83
2021/08/19 04:00:00;;;;;;;6.95;4.43;;;;;;;;;;1082595;47;20385;-83
2021/08/19 04:01:03;;;;;;;5.55;4.45;;;;;;;;;;1082797;39;20722;-83
2021/08/19 04:02:05;;;;;;;4.95;4.35;;;;;;;;;;1083642;54;20380;-83
2021/08/19 04:03:08;;;;;;;10.40;5.40;;;;;;;;;;1083490;47;20412;-82
2021/08/19 04:04:09;;;;;;;4.20;3.90;;;;;;;;;;1084012;47;20384;-83
2021/08/19 04:05:11;;;;;;;4.90;4.43;;;;;;;;;;1083291;47;20358;-82
2021/08/19 04:06:13;;;;;;;5.80;4.45;;;;;;;;;;1082691;54;20353;-83
2021/08/19 04:07:15;;;;;;;4.65;4.07;;;;;;;;;;1082612;54;20365;-83
2021/08/19 04:08:16;;;;;;;4.68;4.30;;;;;;;;;;1083366;54;20395;-82
2021/08/19 04:09:18;;;;;;;4.45;3.92;;;;;;;;;;1083842;54;20385;-84
2021/08/19 04:10:20;;;;;;;4.78;4.00;;;;;;;;;;1083906;54;20365;-83
2021/08/19 04:11:22;;;;;;;5.85;4.00;;;;;;;;;;1083010;54;20369;-84
2021/08/19 04:12:24;;;;;;;7.45;4.22;;;;;;;;;;1082383;54;20433;-83
2021/08/19 04:13:26;;;;;;;4.97;3.78;;;;;;;;;;1082074;47;20381;-82
2021/08/19 04:14:28;;;;;;;5.82;3.95;;;;;;;;;;1082234;39;20907;-83
2021/08/19 04:15:30;;;;;;;4.60;4.10;;;;;;;;;;1082004;54;20405;-83
2021/08/19 04:16:32;;;;;;;4.53;4.10;;;;;;;;;;1081687;47;20374;-82
2021/08/19 04:17:34;;;;;;;5.43;3.72;;;;;;;;;;1081963;54;20382;-83
2021/08/19 04:18:36;;;;;;;5.10;3.65;;;;;;;;;;1081384;47;20468;-82
2021/08/19 04:19:37;;;;;;;5.45;3.63;;;;;;;;;;1081673;54;20386;-83
2021/08/19 04:20:39;;;;;;;4.47;3.63;;;;;;;;;;1082020;39;20570;-82
2021/08/19 04:21:41;;;;;;;7.25;4.25;;;;;;;;;;1081907;54;20395;-83
2021/08/19 04:22:43;;;;;;;4.67;3.67;;;;;;;;;;1082362;31;20794;-83
2021/08/19 04:23:45;;;;;;;5.50;4.00;;;;;;;;;;1081860;39;20764;-83
2021/08/19 04:24:47;;;;;;;5.43;4.30;;;;;;;;;;1081756;39;21115;-83
2021/08/19 04:25:49;;;;;;;7.22;4.20;;;;;;;;;;1081943;54;20365;-84
2021/08/19 04:26:55;;;;;;;5.43;4.25;;;;;;;;;;1081739;47;20396;-83
2021/08/19 04:27:57;;;;;;;7.35;4.88;;;;;;;;;;1082789;54;20365;-83
2021/08/19 04:28:58;;;;;;;6.82;4.97;;;;;;;;;;1085421;47;20358;-84
2021/08/19 04:30:00;;;;;;;5.40;4.90;;;;;;;;;;1086161;54;20452;-83
2021/08/19 04:31:02;;;;;;;7.32;4.72;;;;;;;;;;1086725;39;20600;-84
2021/08/19 04:32:04;;;;;;;5.38;4.88;;;;;;;;;;1087264;51;20445;-83
2021/08/19 04:33:06;;;;;;;5.10;4.60;;;;;;;;;;1087341;46;20445;-84
2021/08/19 04:34:08;;;;;;;6.88;5.13;;;;;;;;;;1086679;54;20403;-83
2021/08/19 04:35:11;;;;;;;6.13;4.70;;;;;;;;;;1085541;46;20392;-82
2021/08/19 04:36:12;;;;;;;5.45;4.40;;;;;;;;;;1085891;54;20345;-83
2021/08/19 04:37:15;;;;;;;6.60;4.90;;;;;;;;;;1085106;47;20448;-83
2021/08/19 04:38:16;;;;;;;5.13;4.70;;;;;;;;;;1082916;47;20417;-82
2021/08/19 04:39:18;;;;;;;5.20;4.70;;;;;;;;;;1082815;54;20387;-83
2021/08/19 04:40:20;;;;;;;6.90;4.50;;;;;;;;;;1082530;39;21117;-84
2021/08/19 04:41:22;;;;;;;6.03;5.05;;;;;;;;;;1082794;47;20381;-82
2021/08/19 04:42:24;;;;;;;8.43;4.55;;;;;;;;;;1082831;47;20399;-81
2021/08/19 04:43:26;;;;;;;8.10;5.30;;;;;;;;;;1082283;47;20361;-82
2021/08/19 04:44:28;;;;;;;6.53;5.18;;;;;;;;;;1084993;51;20457;-83
2021/08/19 04:45:30;;;;;;;4.95;4.55;;;;;;;;;;1086806;54;20415;-83
2021/08/19 04:46:32;;;;;;;5.50;4.78;;;;;;;;;;1086579;54;20393;-84
2021/08/19 04:47:33;;;;;;;5.03;4.55;;;;;;;;;;1086604;47;20496;-83
2021/08/19 04:48:35;;;;;;;5.70;4.78;;;;;;;;;;1083962;54;20410;-83
2021/08/19 04:49:37;;;;;;;6.05;4.50;;;;;;;;;;1084285;47;20404;-82
2021/08/19 04:50:39;;;;;;;6.32;5.15;;;;;;;;;;1086502;47;20392;-83
2021/08/19 04:51:41;;;;;;;7.68;4.82;;;;;;;;;;1087427;54;20392;-82
2021/08/19 04:52:43;;;;;;;5.68;4.90;;;;;;;;;;1087503;47;20389;-82
2021/08/19 04:53:45;;;;;;;6.35;4.70;;;;;;;;;;1087496;54;20357;-83
2021/08/19 04:54:46;;;;;;;7.18;4.82;;;;;;;;;;1084256;54;20373;-82
2021/08/19 04:55:48;;;;;;;8.05;4.65;;;;;;;;;;1083732;54;20381;-82
2021/08/19 04:56:50;;;;;;;5.75;4.90;;;;;;;;;;1083468;54;20388;-82
2021/08/19 04:57:52;;;;;;;6.82;4.68;;;;;;;;;;1083347;47;20365;-82
2021/08/19 04:58:54;;;;;;;5.50;3.90;;;;;;;;;;1082302;54;20392;-83
2021/08/19 04:59:56;;;;;;;6.72;4.70;;;;;;;;;;1082275;47;20925;-82
2021/08/19 05:00:57;;;;;;;6.68;4.38;;;;;;;;;;1082210;54;20404;-82
2021/08/19 05:02:01;;;;;;;5.18;4.68;;;;;;;;;;1081788;47;20384;-83
2021/08/19 05:03:03;;;;;;;5.03;4.03;;;;;;;;;;1081477;54;20365;-82
2021/08/19 05:04:05;;;;;;;7.85;4.50;;;;;;;;;;1082166;54;20381;-82
2021/08/19 05:05:07;;;;;;;6.10;4.57;;;;;;;;;;1081989;54;20924;-82
2021/08/19 05:06:11;;;;;;;4.72;4.07;;;;;;;;;;1081889;54;20964;-82
2021/08/19 05:07:13;;;;;;;11.02;4.95;;;;;;;;;;1081347;54;20377;-82
2021/08/19 05:08:15;;;;;;;5.55;4.47;;;;;;;;;;1081982;54;20365;-82
2021/08/19 05:09:16;;;;;;;6.72;4.80;;;;;;;;;;1082196;47;20381;-82
2021/08/19 05:10:18;;;;;;;5.90;4.07;;;;;;;;;;1082655;39;20837;-83
2021/08/19 05:11:21;;;;;;;4.80;4.15;;;;;;;;;;1081765;54;20472;-83
2021/08/19 05:12:24;;;;;;;6.50;3.95;;;;;;;;;;1081680;47;20368;-83
2021/08/19 05:13:26;;;;;;;4.43;4.05;;;;;;;;;;1082070;39;20816;-84
2021/08/19 05:14:28;;;;;;;4.25;3.92;;;;;;;;;;1081293;54;20374;-83
2021/08/19 05:15:29;;;;;;;6.25;4.30;;;;;;;;;;1082675;39;20947;-83
2021/08/19 05:16:33;;;;;;;4.85;4.22;;;;;;;;;;1081485;47;20381;-83
2021/08/19 05:17:34;;;;;;;5.55;4.20;;;;;;;;;;1081186;54;20374;-83
2021/08/19 05:18:36;;;;;;;4.68;4.25;;;;;;;;;;1083446;54;20432;-83
2021/08/19 05:19:38;;;;;;;5.53;4.20;;;;;;;;;;1081397;54;20411;-83
2021/08/19 05:20:39;;;;;;;7.28;4.40;;;;;;;;;;1081612;47;21165;-83
2021/08/19 05:21:41;;;;;;;7.50;4.80;;;;;;;;;;1081561;47;20403;-84
2021/08/19 05:22:43;;;;;;;5.72;4.65;;;;;;;;;;1082294;54;20389;-83
2021/08/19 05:23:49;;;;;;;8.45;5.18;;;;;;;;;;1081418;54;20404;-84
2021/08/19 05:24:51;;;;;;;7.40;4.75;;;;;;;;;;1080790;54;20389;-83
2021/08/19 05:25:53;;;;;;;7.30;5.72;;;;;;;;;;1081502;47;20350;-83
2021/08/19 05:26:55;;;;;;;6.70;5.70;;;;;;;;;;1082472;47;20399;-83
2021/08/19 05:27:57;;;;;;;10.25;6.85;;;;;;;;;;1081240;47;20464;-84
2021/08/19 05:28:59;;;;;;;8.00;6.20;;;;;;;;;;1082033;54;20374;-84
2021/08/19 05:30:00;;;;;;;10.40;6.63;;;;;;;;;;1081727;54;21139;-83
2021/08/19 05:31:02;;;;;;;10.30;6.32;;;;;;;;;;1081552;47;20412;-83
2021/08/19 05:32:04;;;;;;;10.45;6.30;;;;;;;;;;1081240;54;20924;-83
2021/08/19 05:33:06;;;;;;;7.43;6.13;;;;;;;;;;1081358;54;21035;-83
2021/08/19 05:34:08;;;;;;;8.10;6.67;;;;;;;;;;1082403;54;20358;-83
2021/08/19 05:35:10;;;;;;;8.77;6.65;;;;;;;;;;1081860;47;20378;-83
2021/08/19 05:36:12;;;;;;;11.27;6.75;;;;;;;;;;1081679;47;20377;-83
2021/08/19 05:37:17;;;;;;;11.10;6.78;;;;;;;;;;1081452;46;20369;-84
2021/08/19 05:38:19;;;;;;;11.50;7.15;;;;;;;;;;1081770;54;20361;-84
2021/08/19 05:39:21;;;;;;;11.93;7.65;;;;;;;;;;1081459;54;21020;-84
2021/08/19 05:40:22;;;;;;;10.10;6.82;;;;;;;;;;1081400;54;20480;-84
2021/08/19 05:41:24;;;;;;;8.80;7.00;;;;;;;;;;1081285;47;20381;-84
2021/08/19 05:42:27;;;;;;;8.95;6.90;;;;;;;;;;1080971;54;20377;-83
2021/08/19 05:43:29;;;;;;;7.13;6.38;;;;;;;;;;1081473;54;20377;-83
2021/08/19 05:44:32;;;;;;;9.25;7.45;;;;;;;;;;1081232;47;20404;-84
2021/08/19 05:45:34;;;;;;;9.48;7.28;;;;;;;;;;1081413;47;20374;-83
2021/08/19 05:46:39;;;;;;;7.13;6.43;;;;;;;;;;1081238;54;20389;-83
2021/08/19 05:47:40;;;;;;;7.80;6.75;;;;;;;;;;1081008;47;20377;-84
2021/08/19 05:48:42;;;;;;;9.50;6.60;;;;;;;;;;1081211;47;20383;-83
2021/08/19 05:49:46;;;;;;;7.82;7.07;;;;;;;;;;1081421;47;20369;-83
2021/08/19 05:50:48;;;;;;;8.98;6.47;;;;;;;;;;1081253;47;20504;-83
2021/08/19 05:51:49;;;;;;;8.57;6.82;;;;;;;;;;1081261;47;21292;-83
2021/08/19 05:52:51;;;;;;;9.88;7.10;;;;;;;;;;1080866;47;20404;-83
2021/08/19 05:53:53;;;;;;;11.90;6.90;;;;;;;;;;1081400;54;20408;-83
2021/08/19 05:54:55;;;;;;;11.93;7.70;;;;;;;;;;1081381;54;20407;-84
2021/08/19 05:55:57;;;;;;;11.05;7.22;;;;;;;;;;1081206;54;20389;-83
2021/08/19 05:56:58;;;;;;;7.97;6.75;;;;;;;;;;1080953;47;20984;-83
2021/08/19 05:58:00;;;;;;;8.68;6.47;;;;;;;;;;1081400;54;20377;-83
2021/08/19 05:59:02;;;;;;;7.43;6.72;;;;;;;;;;1081329;54;20403;-83
2021/08/19 06:00:05;;;;;;;9.00;6.55;;;;;;;;;;1081362;47;20400;-83
2021/08/19 06:01:07;;;;;;;9.85;6.78;;;;;;;;;;1081181;47;20406;-83
2021/08/19 06:02:09;;;;;;;8.10;6.78;;;;;;;;;;1081180;54;20448;-83
2021/08/19 06:03:11;;;;;;;7.23;6.37;;;;;;;;;;1081098;54;20373;-83
2021/08/19 06:04:13;;;;;;;8.83;7.03;;;;;;;;;;1081381;54;20377;-83
2021/08/19 06:05:15;;;;;;;11.40;7.35;;;;;;;;;;1081570;54;20369;-82
2021/08/19 06:06:18;;;;;;;8.95;6.82;;;;;;;;;;1081979;47;20387;-83
2021/08/19 06:07:20;;;;;;;13.57;7.35;;;;;;;;;;1081366;47;20492;-83
2021/08/19 06:08:22;;;;;;;8.77;7.00;;;;;;;;;;1081783;47;20377;-84
2021/08/19 06:09:24;;;;;;;12.27;7.38;;;;;;;;;;1082512;39;20740;-84
2021/08/19 06:10:28;;;;;;;8.73;6.32;;;;;;;;;;1081990;47;20458;-83